1894 NOT_NAMED (1894011S14056)


IBTrACS version v04r00. Visit IBTrACS website for data access.
Please direct all questions to the IBTrACS Q and A forum

Storm track - Intensity - Wind Radii - Intensity Data - Source Data - All data

Summary Information

Storm ID 1894011S14056
Start Jan 11 06Z
End Jan 17 06Z
ATCF IDs
Track status Best track data.

Storm track plot

Map of storm track

Intensity plots

No Intensity information for this storm


Radial wind information

No radial wind information for this storm


Position and Intensity Table

BASIN ISO_TIME_________ NATURE LAT LON
degrees north degrees east
SI 1894-01-11 06:00:00 NR -14.00 56.00
SI 09:00:00 NR -14.26 56.00
SI 12:00:00 NR -14.50 56.01
SI 15:00:00 NR -14.72 56.01
SI 18:00:00 NR -14.90 56.00
SI 21:00:00 NR -15.04 55.99
SI 1894-01-12 00:00:00 NR -15.15 55.98
SI 03:00:00 NR -15.26 55.98
SI 06:00:00 NR -15.40 56.00
SI 09:00:00 NR -15.61 56.05
SI 12:00:00 NR -15.84 56.13
SI 15:00:00 NR -16.08 56.21
SI 18:00:00 NR -16.30 56.30
SI 21:00:00 NR -16.45 56.37
SI 1894-01-13 00:00:00 NR -16.58 56.44
SI 03:00:00 NR -16.73 56.51
SI 06:00:00 NR -16.90 56.60
SI 09:00:00 NR -17.16 56.71
SI 12:00:00 NR -17.45 56.83
SI 15:00:00 NR -17.74 56.96
SI 18:00:00 NR -18.00 57.10
SI 21:00:00 NR -18.17 57.24
SI 1894-01-14 00:00:00 NR -18.31 57.38
SI 03:00:00 NR -18.44 57.53
SI 06:00:00 NR -18.60 57.70
SI 09:00:00 NR -18.83 57.89
SI 12:00:00 NR -19.09 58.09
SI 15:00:00 NR -19.36 58.30
SI 18:00:00 NR -19.60 58.50
SI 21:00:00 NR -19.77 58.67
SI 1894-01-15 00:00:00 NR -19.92 58.83
SI 03:00:00 NR -20.09 59.00
SI 06:00:00 NR -20.30 59.20
SI 09:00:00 NR -20.60 59.44
SI 12:00:00 NR -20.96 59.71
SI 15:00:00 NR -21.33 60.00
SI 18:00:00 NR -21.70 60.30
SI 21:00:00 NR -22.04 60.59
SI 1894-01-16 00:00:00 NR -22.36 60.89
SI 03:00:00 NR -22.69 61.20
SI 06:00:00 NR -23.00 61.50
SI 09:00:00 NR -23.31 61.80
SI 12:00:00 NR -23.61 62.11
SI 15:00:00 NR -23.91 62.41
SI 18:00:00 NR -24.20 62.70
SI 21:00:00 NR -24.48 62.98
SI 1894-01-17 00:00:00 NR -24.76 63.26
SI 03:00:00 NR -25.03 63.53
SI 06:00:00 NR -25.30 63.80

Source Information

Agency Information
USA
TOKYO
CMA
HKO
NEWDELHI
REUNION
BOM
NADI
WELLINGTON
DS824
TD9636 cons_worldwide_trop_cyclone_18710101-19891231-005:Line=2258
TD9635
NEUMANN
MLC

All available IBTrACS Data

SEASON BASIN SUBBASIN ISO_TIME_________ NATURE LAT LON DIST2LAND LANDFALL IFLAG USA SSHS TD9636 LAT TD9636 LON TD9636 STAGE STORM SPEED STORM DIR
Year degrees north degrees east km km 1 degrees north degrees east kts degrees
1894 SI MM 1894-01-11 06:00:00 NR -14.00 56.00 607 602 __________O___ -1 -14.00 56.00 7 5 178
1894 SI MM 09:00:00 NR -14.26 56.00 600 596 __________P___ -1 -14.26 56.00 7 5 178
1894 SI MM 12:00:00 NR -14.50 56.01 596 593 __________P___ -1 -14.50 56.01 7 5 177
1894 SI MM 15:00:00 NR -14.72 56.01 593 591 __________P___ -1 -14.72 56.01 7 4 0
1894 SI MM 18:00:00 NR -14.90 56.00 591 591 __________O___ -1 -14.90 56.00 7 3 182
1894 SI MM 21:00:00 NR -15.04 55.99 591 581 __________P___ -1 -15.04 55.99 7 3 183
1894 SI MM 1894-01-12 00:00:00 NR -15.15 55.98 581 560 __________P___ -1 -15.15 55.98 7 2 0
1894 SI MM 03:00:00 NR -15.26 55.98 560 549 __________P___ -1 -15.26 55.98 7 3 178
1894 SI MM 06:00:00 NR -15.40 56.00 549 527 __________O___ -1 -15.40 56.00 7 4 170
1894 SI MM 09:00:00 NR -15.61 56.05 524 503 __________P___ -1 -15.61 56.05 7 5 164
1894 SI MM 12:00:00 NR -15.84 56.13 503 468 __________P___ -1 -15.84 56.13 7 5 162
1894 SI MM 15:00:00 NR -16.08 56.21 468 443 __________P___ -1 -16.08 56.21 7 5 160
1894 SI MM 18:00:00 NR -16.30 56.30 443 429 __________O___ -1 -16.30 56.30 7 4 158
1894 SI MM 21:00:00 NR -16.45 56.37 419 408 __________P___ -1 -16.45 56.37 7 3 155
1894 SI MM 1894-01-13 00:00:00 NR -16.58 56.44 408 394 __________P___ -1 -16.58 56.44 7 3 154
1894 SI MM 03:00:00 NR -16.73 56.51 394 370 __________P___ -1 -16.73 56.51 7 4 154
1894 SI MM 06:00:00 NR -16.90 56.60 370 346 __________O___ -1 -16.90 56.60 7 5 157
1894 SI MM 09:00:00 NR -17.16 56.71 335 310 __________P___ -1 -17.16 56.71 7 6 159
1894 SI MM 12:00:00 NR -17.45 56.83 310 273 __________P___ -1 -17.45 56.83 7 6 157
1894 SI MM 15:00:00 NR -17.74 56.96 273 238 __________P___ -1 -17.74 56.96 7 6 155
1894 SI MM 18:00:00 NR -18.00 57.10 238 214 __________O___ -1 -18.00 57.10 7 5 148
1894 SI MM 21:00:00 NR -18.17 57.24 214 201 __________P___ -1 -18.17 57.24 7 4 139
1894 SI MM 1894-01-14 00:00:00 NR -18.31 57.38 201 190 __________P___ -1 -18.31 57.38 7 4 134
1894 SI MM 03:00:00 NR -18.44 57.53 190 167 __________P___ -1 -18.44 57.53 7 4 134
1894 SI MM 06:00:00 NR -18.60 57.70 167 145 __________O___ -1 -18.60 57.70 7 5 139
1894 SI MM 09:00:00 NR -18.83 57.89 146 119 __________P___ -1 -18.83 57.89 7 6 143
1894 SI MM 12:00:00 NR -19.09 58.09 119 103 __________P___ -1 -19.09 58.09 7 7 143
1894 SI MM 15:00:00 NR -19.36 58.30 100 99 __________P___ -1 -19.36 58.30 7 6 143
1894 SI MM 18:00:00 NR -19.60 58.50 100 94 __________O___ -1 -19.60 58.50 7 5 140
1894 SI MM 21:00:00 NR -19.77 58.67 109 109 __________P___ -1 -19.77 58.67 7 4 136
1894 SI MM 1894-01-15 00:00:00 NR -19.92 58.83 113 113 __________P___ -1 -19.92 58.83 7 4 135
1894 SI MM 03:00:00 NR -20.09 59.00 127 127 __________P___ -1 -20.09 59.00 7 5 137
1894 SI MM 06:00:00 NR -20.30 59.20 145 145 __________O___ -1 -20.30 59.20 7 7 141
1894 SI MM 09:00:00 NR -20.60 59.44 170 170 __________P___ -1 -20.60 59.44 7 8 144
1894 SI MM 12:00:00 NR -20.96 59.71 212 212 __________P___ -1 -20.96 59.71 7 9 144
1894 SI MM 15:00:00 NR -21.33 60.00 254 254 __________P___ -1 -21.33 60.00 7 9 144
1894 SI MM 18:00:00 NR -21.70 60.30 301 301 __________O___ -1 -21.70 60.30 7 9 142
1894 SI MM 21:00:00 NR -22.04 60.59 344 344 __________P___ -1 -22.04 60.59 7 9 140
1894 SI MM 1894-01-16 00:00:00 NR -22.36 60.89 393 393 __________P___ -1 -22.36 60.89 7 9 139
1894 SI MM 03:00:00 NR -22.69 61.20 437 437 __________P___ -1 -22.69 61.20 7 8 139
1894 SI MM 06:00:00 NR -23.00 61.50 481 481 __________O___ -1 -23.00 61.50 7 8 138
1894 SI MM 09:00:00 NR -23.31 61.80 526 526 __________P___ -1 -23.31 61.80 7 8 138
1894 SI MM 12:00:00 NR -23.61 62.11 570 570 __________P___ -1 -23.61 62.11 7 8 137
1894 SI MM 15:00:00 NR -23.91 62.41 615 615 __________P___ -1 -23.91 62.41 7 8 137
1894 SI MM 18:00:00 NR -24.20 62.70 659 659 __________O___ -1 -24.20 62.70 7 8 137
1894 SI MM 21:00:00 NR -24.48 62.98 704 704 __________P___ -1 -24.48 62.98 7 8 138
1894 SI MM 1894-01-17 00:00:00 NR -24.76 63.26 748 748 __________P___ -1 -24.76 63.26 7 7 138
1894 SI MM 03:00:00 NR -25.03 63.53 778 778 __________P___ -1 -25.03 63.53 7 7 138
1894 SI MM 06:00:00 NR -25.30 63.80 823 __________O___ -1 -25.30 63.80 7 7 138